M/V C0sta Favolosa — ICPK — position and weather

sailwx.info

Track history (hours):
 
Tides and Currents Weather Stations Pressure Air Temp Water Temp Dewpoint Dewpoint Depression Visibility Wind Speed Wind Dir Waves Ship Positions

M/V C0sta Favolosa

Last reported at 2018-Feb-17 21:41 UTC. Time now 2018-Feb-22 10:38 UTC.
Position S 24°12' W 046°26'.

Length 289 m; draft 8.3 m.

Type: Ship. MMSI: 247311100.

Date/timePositionNaut miles runAvg speedWind from/ knotsBaromVisibWave heightAir tempDewpointWater temp
2018-Feb-17 21:41S 24°12' W 046°26'317.9
2018-Feb-17 21:30S 24°09' W 046°25'816.6
2018-Feb-17 21:00S 24°01' W 046°21'4 7.4
2018-Feb-17 20:30S 23°59' W 046°17'2 4.1
2018-Feb-17 20:00S 23°57' W 046°19'0 0.0
2018-Feb-17 19:30S 23°57' W 046°19'0 0.0
2018-Feb-17 18:54S 23°57' W 046°19'0 0.0
2018-Feb-17 18:28S 23°57' W 046°19'0 0.0
2018-Feb-17 18:00S 23°57' W 046°19'0 0.0
2018-Feb-17 17:29S 23°57' W 046°19'0 0.0
2018-Feb-17 16:59S 23°57' W 046°19'0 0.0
2018-Feb-17 16:17S 23°57' W 046°19'0 0.0
2018-Feb-17 15:53S 23°57' W 046°19'0 0.0
2018-Feb-17 15:29S 23°57' W 046°19'0 0.0
2018-Feb-17 14:59S 23°57' W 046°19'0 0.0
2018-Feb-17 14:29S 23°57' W 046°19'0 0.0
2018-Feb-17 13:59S 23°57' W 046°19'0 0.0
2018-Feb-17 13:29S 23°57' W 046°19'0 0.0
2018-Feb-17 12:59S 23°57' W 046°19'0 0.0
2018-Feb-17 12:29S 23°57' W 046°19'0 0.0
2018-Feb-17 11:59S 23°57' W 046°19'0 0.0
2018-Feb-17 11:29S 23°57' W 046°19'0 0.0
2018-Feb-17 10:59S 23°57' W 046°19'0 0.0
2018-Feb-17 10:29S 23°57' W 046°19'0 0.0
2018-Feb-17 09:59S 23°57' W 046°19'0 1.0
2018-Feb-17 09:30S 23°57' W 046°18'1 2.1
2018-Feb-17 09:00S 23°58' W 046°18'3 6.4
2018-Feb-17 08:29S 24°00' W 046°20'612.8
2018-Feb-17 08:00S 24°06' W 046°22'  
2018-Feb-12 07:41S 23°20' W 042°20'821.2
2018-Feb-12 07:20S 23°22' W 042°28'3021.0
2018-Feb-12 05:55S 23°29' W 042°59'920.9
2018-Feb-12 05:31S 23°31' W 043°08'1120.8
2018-Feb-12 05:00S 23°34' W 043°19'1020.6
2018-Feb-12 04:30S 23°36' W 043°30'1020.5
2018-Feb-12 04:00S 23°39' W 043°41'1021.0
2018-Feb-12 03:30S 23°41' W 043°52'12921.5
2018-Feb-11 21:30S 24°04' W 046°11'917.6
2018-Feb-11 21:00S 24°01' W 046°20'4 7.3
2018-Feb-11 20:29S 23°59' W 046°17'2 3.0
2018-Feb-11 19:50S 23°57' W 046°19'0 0.0
2018-Feb-11 19:29S 23°57' W 046°19'0 0.0
2018-Feb-11 18:53S 23°57' W 046°19'0 0.0
2018-Feb-11 18:26S 23°57' W 046°19'0 0.0
2018-Feb-11 17:56S 23°57' W 046°19'0 0.0
2018-Feb-11 17:29S 23°57' W 046°19'0 0.0
2018-Feb-11 16:53S 23°57' W 046°19'0 0.0
2018-Feb-11 16:29S 23°57' W 046°19'0 0.0
2018-Feb-11 15:59S 23°57' W 046°19'0 0.0
2018-Feb-11 15:29S 23°57' W 046°19'0 0.0
2018-Feb-11 14:53S 23°57' W 046°19'0 0.0
2018-Feb-11 14:29S 23°57' W 046°19'0 0.0
2018-Feb-11 13:59S 23°57' W 046°19'0 0.0
2018-Feb-11 13:19S 23°57' W 046°19'0 0.0
2018-Feb-11 12:55S 23°57' W 046°19'0 0.0
2018-Feb-11 12:15S 23°57' W 046°19'0 0.0
2018-Feb-11 11:57S 23°57' W 046°19'0 0.0
2018-Feb-11 11:29S 23°57' W 046°19'0 0.0
2018-Feb-11 10:59S 23°57' W 046°19'0 0.0
2018-Feb-11 10:23S 23°57' W 046°19'0 0.0
2018-Feb-11 09:54S 23°57' W 046°19'0 1.1
2018-Feb-11 09:31S 23°57' W 046°18'2 3.2
2018-Feb-11 09:01S 23°59' W 046°17'4 7.2
2018-Feb-11 08:31S 24°01' W 046°20'42 1.3
2018-Feb-10 00:02S 24°35' W 045°53'0 7.6
2018-Feb-10 00:00S 24°35' W 045°53'10 7.6
2018-Feb-09 22:44S 24°42' W 046°01'42 0.9
2018-Feb-07 21:42S 24°04' W 046°22'  
Track history (hours):
 
Tides and Currents Weather Stations Pressure Air Temp Water Temp Dewpoint Dewpoint Depression Visibility Wind Speed Wind Dir Waves Ship Positions

M/V C0sta Favolosa

Last reported at 2018-Feb-17 21:41 UTC. Time now 2018-Feb-22 10:38 UTC.
Position S 24°12' W 046°26'.

Length 289 m; draft 8.3 m.

Type: Ship. MMSI: 247311100.

Date/timePositionNaut miles runAvg speedWind from/ knotsBaromVisibWave heightAir tempDewpointWater temp
2018-Feb-17 21:41S 24°12' W 046°26'317.9
2018-Feb-17 21:30S 24°09' W 046°25'816.6
2018-Feb-17 21:00S 24°01' W 046°21'4 7.4
2018-Feb-17 20:30S 23°59' W 046°17'2 4.1
2018-Feb-17 20:00S 23°57' W 046°19'0 0.0
2018-Feb-17 19:30S 23°57' W 046°19'0 0.0
2018-Feb-17 18:54S 23°57' W 046°19'0 0.0
2018-Feb-17 18:28S 23°57' W 046°19'0 0.0
2018-Feb-17 18:00S 23°57' W 046°19'0 0.0
2018-Feb-17 17:29S 23°57' W 046°19'0 0.0
2018-Feb-17 16:59S 23°57' W 046°19'0 0.0
2018-Feb-17 16:17S 23°57' W 046°19'0 0.0
2018-Feb-17 15:53S 23°57' W 046°19'0 0.0
2018-Feb-17 15:29S 23°57' W 046°19'0 0.0
2018-Feb-17 14:59S 23°57' W 046°19'0 0.0
2018-Feb-17 14:29S 23°57' W 046°19'0 0.0
2018-Feb-17 13:59S 23°57' W 046°19'0 0.0
2018-Feb-17 13:29S 23°57' W 046°19'0 0.0
2018-Feb-17 12:59S 23°57' W 046°19'0 0.0
2018-Feb-17 12:29S 23°57' W 046°19'0 0.0
2018-Feb-17 11:59S 23°57' W 046°19'0 0.0
2018-Feb-17 11:29S 23°57' W 046°19'0 0.0
2018-Feb-17 10:59S 23°57' W 046°19'0 0.0
2018-Feb-17 10:29S 23°57' W 046°19'0 0.0
2018-Feb-17 09:59S 23°57' W 046°19'0 1.0
2018-Feb-17 09:30S 23°57' W 046°18'1 2.1
2018-Feb-17 09:00S 23°58' W 046°18'3 6.4
2018-Feb-17 08:29S 24°00' W 046°20'612.8
2018-Feb-17 08:00S 24°06' W 046°22'  
2018-Feb-12 07:41S 23°20' W 042°20'821.2
2018-Feb-12 07:20S 23°22' W 042°28'3021.0
2018-Feb-12 05:55S 23°29' W 042°59'920.9
2018-Feb-12 05:31S 23°31' W 043°08'1120.8
2018-Feb-12 05:00S 23°34' W 043°19'1020.6
2018-Feb-12 04:30S 23°36' W 043°30'1020.5
2018-Feb-12 04:00S 23°39' W 043°41'1021.0
2018-Feb-12 03:30S 23°41' W 043°52'12921.5
2018-Feb-11 21:30S 24°04' W 046°11'917.6
2018-Feb-11 21:00S 24°01' W 046°20'4 7.3
2018-Feb-11 20:29S 23°59' W 046°17'2 3.0
2018-Feb-11 19:50S 23°57' W 046°19'0 0.0
2018-Feb-11 19:29S 23°57' W 046°19'0 0.0
2018-Feb-11 18:53S 23°57' W 046°19'0 0.0
2018-Feb-11 18:26S 23°57' W 046°19'0 0.0
2018-Feb-11 17:56S 23°57' W 046°19'0 0.0
2018-Feb-11 17:29S 23°57' W 046°19'0 0.0
2018-Feb-11 16:53S 23°57' W 046°19'0 0.0
2018-Feb-11 16:29S 23°57' W 046°19'0 0.0
2018-Feb-11 15:59S 23°57' W 046°19'0 0.0
2018-Feb-11 15:29S 23°57' W 046°19'0 0.0
2018-Feb-11 14:53S 23°57' W 046°19'0 0.0
2018-Feb-11 14:29S 23°57' W 046°19'0 0.0
2018-Feb-11 13:59S 23°57' W 046°19'0 0.0
2018-Feb-11 13:19S 23°57' W 046°19'0 0.0
2018-Feb-11 12:55S 23°57' W 046°19'0 0.0
2018-Feb-11 12:15S 23°57' W 046°19'0 0.0
2018-Feb-11 11:57S 23°57' W 046°19'0 0.0
2018-Feb-11 11:29S 23°57' W 046°19'0 0.0
2018-Feb-11 10:59S 23°57' W 046°19'0 0.0
2018-Feb-11 10:23S 23°57' W 046°19'0 0.0
2018-Feb-11 09:54S 23°57' W 046°19'0 1.1
2018-Feb-11 09:31S 23°57' W 046°18'2 3.2
2018-Feb-11 09:01S 23°59' W 046°17'4 7.2
2018-Feb-11 08:31S 24°01' W 046°20'42 1.3
2018-Feb-10 00:02S 24°35' W 045°53'0 7.6
2018-Feb-10 00:00S 24°35' W 045°53'10 7.6
2018-Feb-09 22:44S 24°42' W 046°01'42 0.9
2018-Feb-07 21:42S 24°04' W 046°22'  

Dump ship's entire track history